Time;durP1;ratioP1;P1;durP2;ratioP2;P2;SDS_P1;SDS_P2;PMS_P1;PMS_P2;Temp;Humidity;BMP_temperature;BMP_pressure;BME280_temperature;BME280_humidity;BME280_pressure;Samples;Min_cycle;Max_cycle;Signal;HPM_P1;HPM_P2
2022/03/05 00:00:08;;;;;;;0.00;0.00;;;3.60;99.90;;;;;;5103724;28;20303;-73
2022/03/05 00:02:34;;;;;;;0.00;0.00;;;3.60;99.90;;;;;;5085006;28;20016;-72
2022/03/05 00:04:59;;;;;;;0.03;0.03;;;3.60;99.90;;;;;;5085741;28;20211;-71
2022/03/05 00:07:25;;;;;;;0.63;0.63;;;3.70;99.90;;;;;;5084698;28;20023;-72
2022/03/05 00:09:51;;;;;;;0.00;0.00;;;3.70;99.90;;;;;;5107405;28;20105;-72
2022/03/05 00:12:17;;;;;;;0.55;0.55;;;3.80;99.90;;;;;;5084300;28;20024;-72
2022/03/05 00:14:43;;;;;;;0.00;0.00;;;3.80;99.90;;;;;;5085154;28;20038;-72
2022/03/05 00:17:09;;;;;;;0.00;0.00;;;3.80;99.90;;;;;;5104265;28;20024;-75
2022/03/05 00:19:34;;;;;;;0.10;0.10;;;3.80;99.90;;;;;;5103883;28;20024;-72
2022/03/05 00:22:01;;;;;;;0.00;0.00;;;3.80;99.90;;;;;;5083689;28;20111;-72
2022/03/05 00:24:28;;;;;;;0.00;0.00;;;3.80;99.90;;;;;;5103118;28;20128;-72
2022/03/05 00:26:55;;;;;;;0.00;0.00;;;3.70;99.90;;;;;;5103846;28;20093;-72
2022/03/05 00:29:20;;;;;;;0.00;0.00;;;3.70;99.90;;;;;;5085238;28;20088;-71
2022/03/05 00:31:46;;;;;;;0.00;0.00;;;3.70;99.90;;;;;;5102965;28;20019;-72
2022/03/05 00:34:12;;;;;;;0.00;0.00;;;3.60;99.90;;;;;;5084807;28;20047;-72
2022/03/05 00:36:38;;;;;;;0.00;0.00;;;3.60;99.90;;;;;;5079874;28;20012;-72
2022/03/05 00:39:05;;;;;;;0.00;0.00;;;3.60;99.90;;;;;;5103218;28;20157;-72
2022/03/05 00:41:30;;;;;;;0.00;0.00;;;3.60;99.90;;;;;;5084106;28;20028;-72
2022/03/05 00:43:56;;;;;;;0.00;0.00;;;3.40;99.90;;;;;;5102801;28;20030;-72
2022/03/05 00:46:41;;;;;;;0.00;0.00;;;3.40;99.90;;;;;;5084231;28;20348;-71
2022/03/05 00:49:07;;;;;;;0.00;0.00;;;3.40;99.90;;;;;;5085044;28;20087;-74
2022/03/05 00:51:33;;;;;;;0.00;0.00;;;3.30;99.90;;;;;;5084455;28;20109;-70
2022/03/05 00:53:59;;;;;;;0.20;0.20;;;3.40;99.90;;;;;;5084178;28;20015;-70
2022/03/05 00:56:24;;;;;;;0.00;0.00;;;3.40;99.90;;;;;;5083506;28;20028;-70
2022/03/05 00:58:50;;;;;;;0.00;0.00;;;3.40;99.90;;;;;;5085320;28;20016;-70
2022/03/05 01:01:16;;;;;;;0.00;0.00;;;3.50;99.90;;;;;;5084674;28;20291;-70
2022/03/05 01:03:43;;;;;;;0.20;0.20;;;3.40;99.90;;;;;;5085018;28;20023;-70
2022/03/05 01:06:08;;;;;;;0.00;0.00;;;3.50;99.90;;;;;;5080181;28;20023;-76
2022/03/05 01:08:34;;;;;;;0.00;0.00;;;3.50;99.90;;;;;;5096996;28;20088;-73
2022/03/05 01:11:01;;;;;;;0.00;0.00;;;3.60;99.90;;;;;;5092448;28;20035;-72
2022/03/05 01:13:26;;;;;;;0.13;0.13;;;3.60;99.90;;;;;;5101534;28;20115;-74
2022/03/05 01:15:52;;;;;;;0.00;0.00;;;3.50;99.90;;;;;;5102414;28;20031;-75
2022/03/05 01:18:18;;;;;;;0.00;0.00;;;3.50;99.90;;;;;;5101625;28;20024;-75
2022/03/05 01:20:44;;;;;;;3.10;1.33;;;3.50;99.90;;;;;;5102041;28;20107;-74
2022/03/05 01:23:09;;;;;;;0.00;0.00;;;3.40;99.90;;;;;;5084216;28;20035;-79
2022/03/05 01:25:35;;;;;;;0.00;0.00;;;3.40;99.90;;;;;;5102071;28;20211;-75
2022/03/05 01:28:01;;;;;;;0.10;0.10;;;3.40;99.90;;;;;;5084118;28;20031;-75
2022/03/05 01:30:27;;;;;;;0.52;0.52;;;3.30;99.90;;;;;;5081821;28;20028;-74
2022/03/05 01:32:53;;;;;;;0.00;0.00;;;3.40;99.90;;;;;;5082290;28;20070;-74
2022/03/05 01:35:19;;;;;;;0.00;0.00;;;3.40;99.90;;;;;;5082970;28;20016;-74
2022/03/05 01:37:45;;;;;;;0.00;0.00;;;3.40;99.90;;;;;;5102259;28;20043;-75
2022/03/05 01:40:11;;;;;;;0.00;0.00;;;3.40;99.90;;;;;;5101503;28;20024;-78
2022/03/05 01:42:37;;;;;;;0.00;0.00;;;3.40;99.90;;;;;;5102606;28;20173;-75
2022/03/05 01:45:04;;;;;;;0.00;0.00;;;3.40;99.90;;;;;;5083931;28;20020;-74
2022/03/05 01:47:30;;;;;;;0.00;0.00;;;3.40;99.90;;;;;;5083778;28;20016;-75
2022/03/05 01:49:56;;;;;;;0.00;0.00;;;3.40;99.90;;;;;;5083389;28;20040;-75
2022/03/05 01:52:22;;;;;;;0.00;0.00;;;3.40;99.90;;;;;;5082565;28;20162;-75
2022/03/05 01:54:48;;;;;;;0.05;0.05;;;3.40;99.90;;;;;;5101806;28;20016;-71
2022/03/05 01:57:14;;;;;;;0.00;0.00;;;3.30;99.90;;;;;;5100919;28;20016;-71
2022/03/05 01:59:40;;;;;;;1.40;0.60;;;3.30;99.90;;;;;;5101828;28;20016;-74
2022/03/05 02:02:06;;;;;;;0.55;0.55;;;3.40;99.90;;;;;;5092630;28;20024;-72
2022/03/05 02:04:32;;;;;;;0.05;0.05;;;3.40;99.90;;;;;;5082854;28;20028;-71
2022/03/05 02:06:58;;;;;;;1.50;1.45;;;3.40;99.90;;;;;;5083501;28;20036;-70
2022/03/05 02:09:24;;;;;;;0.90;0.90;;;3.40;99.90;;;;;;5084221;28;20077;-70
2022/03/05 02:11:50;;;;;;;0.10;0.10;;;3.40;99.90;;;;;;5083110;28;20019;-70
2022/03/05 02:14:17;;;;;;;0.00;0.00;;;3.40;99.90;;;;;;5100160;28;20195;-71
2022/03/05 02:16:43;;;;;;;0.00;0.00;;;3.40;99.90;;;;;;5082701;28;20020;-71
2022/03/05 02:19:09;;;;;;;0.00;0.00;;;3.40;99.90;;;;;;5101002;28;20019;-75
2022/03/05 02:21:36;;;;;;;0.00;0.00;;;3.50;99.90;;;;;;5082821;28;20357;-70
2022/03/05 02:24:02;;;;;;;1.80;1.77;;;3.50;99.90;;;;;;5083215;28;20065;-71
2022/03/05 02:26:28;;;;;;;0.00;0.00;;;3.50;99.90;;;;;;5083150;28;20177;-72
2022/03/05 02:28:54;;;;;;;0.00;0.00;;;3.50;99.90;;;;;;5083069;28;20032;-72
2022/03/05 02:31:20;;;;;;;0.43;0.43;;;3.50;99.90;;;;;;5100727;28;20065;-72
2022/03/05 02:33:46;;;;;;;0.80;0.80;;;3.40;99.90;;;;;;5100579;28;20423;-72
2022/03/05 02:36:11;;;;;;;0.30;0.30;;;3.50;99.90;;;;;;5081993;28;20023;-76
2022/03/05 02:38:37;;;;;;;0.00;0.00;;;3.60;99.90;;;;;;5083126;28;20016;-71
2022/03/05 02:41:03;;;;;;;0.25;0.25;;;3.50;99.90;;;;;;5080354;28;20032;-72
2022/03/05 02:43:29;;;;;;;0.00;0.00;;;3.50;99.90;;;;;;5087308;28;20211;-72
2022/03/05 02:45:55;;;;;;;0.00;0.00;;;3.60;99.90;;;;;;5074572;28;20424;-71
2022/03/05 02:48:21;;;;;;;0.00;0.00;;;3.50;99.90;;;;;;5082792;28;20202;-75
2022/03/05 02:50:49;;;;;;;0.32;0.32;;;3.50;99.90;;;;;;5083350;28;20040;-74
2022/03/05 02:53:15;;;;;;;0.00;0.00;;;3.40;99.90;;;;;;5100217;28;20055;-75
2022/03/05 02:55:41;;;;;;;0.60;0.60;;;3.40;99.90;;;;;;5082441;28;20023;-74
2022/03/05 02:58:07;;;;;;;1.65;1.10;;;3.40;99.90;;;;;;5082763;28;20016;-75
2022/03/05 03:00:33;;;;;;;6.72;6.32;;;3.40;99.90;;;;;;5081800;28;20164;-72
2022/03/05 03:02:59;;;;;;;1.63;1.52;;;3.30;99.90;;;;;;5082178;28;20023;-72
2022/03/05 03:05:25;;;;;;;0.00;0.00;;;3.30;99.90;;;;;;5081428;28;20020;-73
2022/03/05 03:07:51;;;;;;;0.00;0.00;;;3.30;99.90;;;;;;5100768;28;20016;-72
2022/03/05 03:10:17;;;;;;;2.05;1.98;;;3.40;99.90;;;;;;5103918;28;20028;-72
2022/03/05 03:12:43;;;;;;;0.00;0.00;;;3.30;99.90;;;;;;5100346;28;20020;-71
2022/03/05 03:15:13;;;;;;;0.00;0.00;;;3.30;99.90;;;;;;5089689;28;20339;-73
2022/03/05 03:17:48;;;;;;;0.00;0.00;;;3.30;99.90;;;;;;5066964;28;20299;-71
2022/03/05 03:20:17;;;;;;;0.00;0.00;;;3.30;99.90;;;;;;5076197;28;20272;-74
2022/03/05 03:22:43;;;;;;;0.65;0.65;;;3.30;99.90;;;;;;5074697;28;20093;-72
2022/03/05 03:25:10;;;;;;;0.00;0.00;;;3.30;99.90;;;;;;5076496;28;20020;-74
2022/03/05 03:27:36;;;;;;;0.17;0.17;;;3.30;99.90;;;;;;5075695;28;20032;-74
2022/03/05 03:30:03;;;;;;;1.55;1.45;;;3.30;99.90;;;;;;5075879;28;20115;-76
2022/03/05 03:32:29;;;;;;;0.17;0.17;;;3.30;99.90;;;;;;5075639;28;20028;-71
2022/03/05 03:34:55;;;;;;;0.00;0.00;;;3.30;99.90;;;;;;5069752;28;20372;-72
2022/03/05 03:37:20;;;;;;;0.00;0.00;;;3.30;99.90;;;;;;5069637;28;20236;-70
2022/03/05 03:39:46;;;;;;;0.30;0.30;;;3.30;99.90;;;;;;5077111;28;20314;-71
2022/03/05 03:42:12;;;;;;;0.00;0.00;;;3.30;99.90;;;;;;5066371;28;20032;-77
2022/03/05 03:44:38;;;;;;;0.00;0.00;;;3.30;99.90;;;;;;5053655;28;20024;-75
2022/03/05 03:47:04;;;;;;;0.00;0.00;;;3.30;99.90;;;;;;5061384;28;20104;-74
2022/03/05 03:49:30;;;;;;;1.65;1.35;;;3.30;99.90;;;;;;5078822;28;20052;-73
2022/03/05 03:51:56;;;;;;;4.78;4.55;;;3.30;99.90;;;;;;5081565;28;20038;-73
2022/03/05 03:54:22;;;;;;;0.00;0.00;;;3.20;99.90;;;;;;5098782;28;20271;-74
2022/03/05 03:56:48;;;;;;;0.00;0.00;;;3.20;99.90;;;;;;5099799;28;20073;-73
2022/03/05 03:59:14;;;;;;;0.00;0.00;;;3.20;99.90;;;;;;5084980;28;20299;-76
2022/03/05 04:01:39;;;;;;;0.00;0.00;;;3.20;99.90;;;;;;5102685;28;20020;-73
2022/03/05 04:04:05;;;;;;;0.73;0.68;;;3.20;99.90;;;;;;5085286;28;20039;-75
2022/03/05 04:08:41;;;;;;;0.00;0.00;;;3.20;99.90;;;;;;5084522;28;20214;-74
2022/03/05 04:09:17;;;;;;;0.00;0.00;;;3.10;99.90;;;;;;5103659;28;20302;-74
2022/03/05 04:11:42;;;;;;;0.00;0.00;;;3.10;99.90;;;;;;5085059;28;20028;-74
2022/03/05 04:14:08;;;;;;;0.00;0.00;;;3.00;99.90;;;;;;5085148;28;20024;-75
2022/03/05 04:16:34;;;;;;;3.30;0.35;;;3.00;99.90;;;;;;5099991;28;20087;-74
2022/03/05 04:19:00;;;;;;;0.00;0.00;;;3.00;99.90;;;;;;5084662;28;20050;-74
2022/03/05 04:21:25;;;;;;;0.00;0.00;;;3.00;99.90;;;;;;5084160;28;20203;-74
2022/03/05 04:23:51;;;;;;;0.00;0.00;;;2.90;99.90;;;;;;5103402;28;20008;-75
2022/03/05 04:26:17;;;;;;;0.00;0.00;;;2.90;99.90;;;;;;5084942;28;20083;-75
2022/03/05 04:28:43;;;;;;;3.22;3.13;;;2.90;99.90;;;;;;5085447;28;20310;-75
2022/03/05 04:31:08;;;;;;;0.20;0.20;;;2.90;99.90;;;;;;5084709;28;20050;-72
2022/03/05 04:33:34;;;;;;;0.00;0.00;;;2.90;99.90;;;;;;5101760;28;20344;-73
2022/03/05 04:36:00;;;;;;;0.00;0.00;;;2.90;99.90;;;;;;5102547;28;20032;-72
2022/03/05 04:38:25;;;;;;;0.00;0.00;;;2.80;99.90;;;;;;5099166;28;20031;-72
2022/03/05 04:40:51;;;;;;;0.00;0.00;;;2.80;99.90;;;;;;5103143;28;20047;-71
2022/03/05 04:43:17;;;;;;;3.95;3.60;;;2.80;99.90;;;;;;5102171;28;20035;-75
2022/03/05 04:45:42;;;;;;;0.03;0.03;;;2.90;99.90;;;;;;5083901;28;20083;-72
2022/03/05 04:48:08;;;;;;;0.00;0.00;;;2.90;99.90;;;;;;5100271;28;20020;-72
2022/03/05 04:50:34;;;;;;;0.00;0.00;;;2.90;99.90;;;;;;5103156;28;20119;-72
2022/03/05 04:52:59;;;;;;;0.00;0.00;;;2.90;99.90;;;;;;5102483;28;20024;-72
2022/03/05 04:55:25;;;;;;;0.00;0.00;;;2.90;99.90;;;;;;5101136;28;20019;-72
2022/03/05 04:57:51;;;;;;;5.00;3.03;;;2.90;99.90;;;;;;5103120;28;20037;-72
2022/03/05 05:00:17;;;;;;;0.00;0.00;;;2.80;99.90;;;;;;5102268;28;20046;-75
2022/03/05 05:02:43;;;;;;;0.00;0.00;;;2.80;99.90;;;;;;5103011;28;20095;-72
2022/03/05 05:05:09;;;;;;;0.00;0.00;;;2.80;99.90;;;;;;5084596;28;20020;-72
2022/03/05 05:07:35;;;;;;;0.00;0.00;;;2.80;99.90;;;;;;5102435;28;20194;-71
2022/03/05 05:10:00;;;;;;;0.00;0.00;;;2.80;99.90;;;;;;5086728;28;20027;-72
2022/03/05 05:12:26;;;;;;;0.00;0.00;;;2.80;99.90;;;;;;5083100;28;20215;-72
2022/03/05 05:14:52;;;;;;;0.00;0.00;;;2.80;99.90;;;;;;5101776;28;20020;-73
2022/03/05 05:17:17;;;;;;;1.27;0.60;;;2.80;99.90;;;;;;5081287;28;20020;-75
2022/03/05 05:19:43;;;;;;;0.00;0.00;;;2.80;99.90;;;;;;5085273;28;20061;-72
2022/03/05 05:22:09;;;;;;;0.75;0.75;;;2.90;99.90;;;;;;5084533;28;20023;-72
2022/03/05 05:24:36;;;;;;;0.10;0.10;;;2.90;99.90;;;;;;5101749;28;20028;-72
2022/03/05 05:27:03;;;;;;;0.00;0.00;;;2.90;99.90;;;;;;5083548;28;20027;-72
2022/03/05 05:29:29;;;;;;;0.00;0.00;;;2.90;99.90;;;;;;5083548;28;20019;-72
2022/03/05 05:31:55;;;;;;;0.65;0.65;;;3.00;99.90;;;;;;5101785;28;20167;-71
2022/03/05 05:34:22;;;;;;;0.80;0.10;;;3.00;99.90;;;;;;5101103;28;20020;-71
2022/03/05 05:36:48;;;;;;;0.00;0.00;;;3.00;99.90;;;;;;5099225;28;20043;-74
2022/03/05 05:39:15;;;;;;;0.00;0.00;;;3.00;99.90;;;;;;5083529;28;20042;-72
2022/03/05 05:41:41;;;;;;;0.00;0.00;;;3.00;99.90;;;;;;5083486;28;20020;-76
2022/03/05 05:44:09;;;;;;;0.00;0.00;;;2.90;99.90;;;;;;5101610;28;20016;-73
2022/03/05 05:46:35;;;;;;;;;;;2.90;99.90;;;;;;5083157;28;20020;-72
2022/03/05 05:49:01;;;;;;;0.00;0.00;;;2.90;99.90;;;;;;5098397;28;19939;-74
2022/03/05 05:51:28;;;;;;;1.30;1.25;;;2.90;99.90;;;;;;5083081;28;20111;-72
2022/03/05 05:53:56;;;;;;;0.15;0.15;;;2.90;99.90;;;;;;5083313;28;20030;-72
2022/03/05 05:56:22;;;;;;;0.00;0.00;;;2.90;99.90;;;;;;5100689;28;20062;-73
2022/03/05 05:58:49;;;;;;;0.00;0.00;;;2.90;99.90;;;;;;5083811;28;20260;-72
2022/03/05 06:01:16;;;;;;;0.00;0.00;;;2.90;99.90;;;;;;5082892;28;20031;-71
2022/03/05 06:03:42;;;;;;;0.00;0.00;;;2.90;99.90;;;;;;5082364;28;20259;-71
2022/03/05 06:06:26;;;;;;;1.45;1.38;;;2.90;99.90;;;;;;5083333;28;20023;-72
2022/03/05 06:08:52;;;;;;;0.00;0.00;;;3.00;99.90;;;;;;5084318;28;20028;-72
2022/03/05 06:11:18;;;;;;;0.00;0.00;;;3.00;99.90;;;;;;5082437;28;20214;-75
2022/03/05 06:13:43;;;;;;;0.22;0.22;;;3.00;99.90;;;;;;5082798;28;20301;-71
2022/03/05 06:16:09;;;;;;;0.00;0.00;;;3.00;99.90;;;;;;5082799;28;20016;-71
2022/03/05 06:18:35;;;;;;;0.00;0.00;;;3.00;99.90;;;;;;5079829;28;20052;-71
2022/03/05 06:21:01;;;;;;;0.00;0.00;;;3.00;99.90;;;;;;5099928;28;20020;-71
2022/03/05 06:23:26;;;;;;;0.80;0.47;;;3.10;99.90;;;;;;5100153;28;20019;-71
2022/03/05 06:25:52;;;;;;;0.75;0.75;;;3.00;99.90;;;;;;5083106;28;20026;-71
2022/03/05 06:28:18;;;;;;;0.00;0.00;;;3.10;99.90;;;;;;5082520;28;20095;-74
2022/03/05 06:31:02;;;;;;;0.00;0.00;;;3.10;99.90;;;;;;5101104;28;20027;-74
2022/03/05 06:33:29;;;;;;;0.00;0.00;;;3.10;99.90;;;;;;5080503;28;20020;-72
2022/03/05 06:35:55;;;;;;;0.00;0.00;;;3.20;99.90;;;;;;5100974;28;20035;-73
2022/03/05 06:38:21;;;;;;;0.10;0.10;;;3.20;99.90;;;;;;5082352;28;20102;-77
2022/03/05 06:40:47;;;;;;;2.72;2.63;;;3.20;99.90;;;;;;5083502;28;20024;-72
2022/03/05 06:43:13;;;;;;;0.00;0.00;;;3.30;99.90;;;;;;5082413;28;20049;-73
2022/03/05 06:45:39;;;;;;;0.00;0.00;;;3.30;99.90;;;;;;5081733;28;20028;-75
2022/03/05 06:48:05;;;;;;;2.38;1.08;;;3.40;99.90;;;;;;5080246;28;20024;-75
2022/03/05 06:50:31;;;;;;;0.00;0.00;;;3.50;99.90;;;;;;5098987;28;20039;-75
2022/03/05 06:52:57;;;;;;;0.00;0.00;;;3.50;99.90;;;;;;5098797;28;20031;-75
2022/03/05 06:55:23;;;;;;;0.20;0.20;;;3.50;99.90;;;;;;5081645;28;20032;-76
2022/03/05 06:57:49;;;;;;;0.00;0.00;;;3.40;99.90;;;;;;5100669;28;20090;-75
2022/03/05 07:00:16;;;;;;;0.00;0.00;;;3.50;99.90;;;;;;5082941;28;20207;-74
2022/03/05 07:02:43;;;;;;;0.00;0.00;;;3.50;99.90;;;;;;5081930;28;20211;-73
2022/03/05 07:05:09;;;;;;;0.00;0.00;;;3.50;99.90;;;;;;5100341;28;20012;-70
2022/03/05 07:07:35;;;;;;;0.00;0.00;;;3.50;99.90;;;;;;5081918;28;20016;-71
2022/03/05 07:10:03;;;;;;;0.00;0.00;;;3.60;99.90;;;;;;5082690;28;20036;-71
2022/03/05 07:12:28;;;;;;;0.00;0.00;;;3.60;99.90;;;;;;5099892;28;20268;-70
2022/03/05 07:14:54;;;;;;;0.00;0.00;;;3.70;99.90;;;;;;5098835;28;20031;-72
2022/03/05 07:17:20;;;;;;;1.48;1.15;;;3.80;99.90;;;;;;5080435;28;20299;-74
2022/03/05 07:19:46;;;;;;;0.00;0.00;;;3.80;99.90;;;;;;5079837;28;20199;-71
2022/03/05 07:22:12;;;;;;;0.00;0.00;;;3.90;99.90;;;;;;5082287;28;20440;-70
2022/03/05 07:24:37;;;;;;;0.22;0.22;;;3.90;99.90;;;;;;5100693;28;20027;-71
2022/03/05 07:27:04;;;;;;;2.10;2.00;;;3.90;99.90;;;;;;5082591;28;20081;-70
2022/03/05 07:29:29;;;;;;;0.00;0.00;;;3.90;99.90;;;;;;5099738;28;20565;-70
2022/03/05 07:31:55;;;;;;;1.08;1.05;;;3.90;99.90;;;;;;5100771;28;20031;-69
2022/03/05 07:34:21;;;;;;;0.00;0.00;;;4.00;99.90;;;;;;5103913;28;20058;-73
2022/03/05 07:36:47;;;;;;;0.00;0.00;;;4.00;99.90;;;;;;5085090;28;20113;-71
2022/03/05 07:39:12;;;;;;;0.45;0.20;;;4.00;99.90;;;;;;5085098;28;20042;-71
2022/03/05 07:41:39;;;;;;;0.38;0.38;;;4.00;99.90;;;;;;5085316;28;20061;-72
2022/03/05 07:44:06;;;;;;;0.90;0.75;;;4.10;99.90;;;;;;5086477;28;20020;-73
2022/03/05 07:46:33;;;;;;;0.00;0.00;;;4.20;99.90;;;;;;5103413;28;20090;-71
2022/03/05 07:48:59;;;;;;;0.00;0.00;;;4.30;99.90;;;;;;5082909;28;20019;-70
2022/03/05 07:51:25;;;;;;;0.20;0.20;;;4.30;99.90;;;;;;5103014;28;20066;-73
2022/03/05 07:53:51;;;;;;;0.03;0.03;;;4.40;99.90;;;;;;5104203;28;20085;-71
2022/03/05 07:56:19;;;;;;;0.00;0.00;;;4.40;99.90;;;;;;5103655;28;20016;-72
2022/03/05 07:58:45;;;;;;;0.35;0.35;;;4.50;99.90;;;;;;5084542;28;20119;-75
2022/03/05 08:01:10;;;;;;;1.02;0.25;;;4.60;99.90;;;;;;5075507;28;20035;-71
2022/03/05 08:03:36;;;;;;;0.00;0.00;;;4.60;99.90;;;;;;5070323;28;20020;-68
2022/03/05 08:06:02;;;;;;;0.00;0.00;;;4.60;99.90;;;;;;5086026;28;20015;-70
2022/03/05 08:08:28;;;;;;;0.00;0.00;;;4.70;99.90;;;;;;5103348;28;20032;-70
2022/03/05 08:10:54;;;;;;;0.00;0.00;;;4.70;99.90;;;;;;5087493;28;20107;-70
2022/03/05 08:13:20;;;;;;;0.00;0.00;;;4.70;99.90;;;;;;5104522;28;20016;-71
2022/03/05 08:15:46;;;;;;;0.00;0.00;;;4.80;99.90;;;;;;5103342;28;20050;-69
2022/03/05 08:18:12;;;;;;;0.00;0.00;;;4.80;99.90;;;;;;5085573;28;20020;-69
2022/03/05 08:20:38;;;;;;;0.03;0.03;;;4.80;99.90;;;;;;5083963;28;20206;-70
2022/03/05 08:23:04;;;;;;;0.30;0.30;;;4.90;99.90;;;;;;5103860;28;20016;-69
2022/03/05 08:25:30;;;;;;;2.30;0.85;;;4.90;99.90;;;;;;5102743;28;20327;-69
2022/03/05 08:27:55;;;;;;;0.00;0.00;;;4.90;99.90;;;;;;5085517;28;20206;-70
2022/03/05 08:30:21;;;;;;;0.00;0.00;;;5.00;99.90;;;;;;5085733;28;20049;-68
2022/03/05 08:32:47;;;;;;;0.00;0.00;;;5.00;99.90;;;;;;5081145;28;20020;-68
2022/03/05 08:35:13;;;;;;;0.00;0.00;;;5.10;99.90;;;;;;5082634;28;20054;-69
2022/03/05 08:37:40;;;;;;;0.00;0.00;;;5.20;99.90;;;;;;5084647;28;20016;-70
2022/03/05 08:40:08;;;;;;;0.73;0.73;;;5.20;99.90;;;;;;5085426;28;20019;-71
2022/03/05 08:42:34;;;;;;;0.15;0.15;;;5.20;99.90;;;;;;5081596;28;20027;-70
2022/03/05 08:45:02;;;;;;;0.00;0.00;;;5.20;99.90;;;;;;5104464;28;20027;-68
2022/03/05 08:47:29;;;;;;;0.00;0.00;;;5.30;99.90;;;;;;5081218;28;20027;-74
2022/03/05 08:49:54;;;;;;;0.10;0.10;;;5.40;99.90;;;;;;5090481;28;20047;-70
2022/03/05 08:52:20;;;;;;;0.00;0.00;;;5.40;99.90;;;;;;5092935;28;20034;-70
2022/03/05 08:54:46;;;;;;;0.00;0.00;;;5.40;99.90;;;;;;5087001;28;20019;-70
2022/03/05 08:57:11;;;;;;;0.00;0.00;;;5.50;99.90;;;;;;5085279;28;20081;-68
2022/03/05 08:59:40;;;;;;;0.00;0.00;;;5.60;99.90;;;;;;5084310;28;20016;-70
2022/03/05 09:02:08;;;;;;;0.98;0.45;;;5.70;99.90;;;;;;5084534;28;20028;-71
2022/03/05 09:04:34;;;;;;;0.45;0.45;;;5.70;99.90;;;;;;5083946;28;20024;-70
2022/03/05 09:07:01;;;;;;;0.00;0.00;;;5.80;99.90;;;;;;5084623;28;20334;-71
2022/03/05 09:09:27;;;;;;;0.00;0.00;;;5.90;99.90;;;;;;5089470;28;20043;-77
2022/03/05 09:11:53;;;;;;;0.10;0.10;;;5.90;99.90;;;;;;5086158;28;20023;-71
2022/03/05 09:14:19;;;;;;;0.25;0.25;;;5.80;99.90;;;;;;5102703;28;20031;-69
2022/03/05 09:16:45;;;;;;;0.00;0.00;;;5.70;99.90;;;;;;5101570;28;20211;-68
2022/03/05 09:19:11;;;;;;;0.00;0.00;;;5.70;99.90;;;;;;5102823;28;20173;-69
2022/03/05 09:21:37;;;;;;;0.55;0.35;;;5.70;99.90;;;;;;5101469;28;20027;-68
2022/03/05 09:24:04;;;;;;;0.00;0.00;;;5.70;99.90;;;;;;5102506;28;20030;-68
2022/03/05 09:26:31;;;;;;;3.93;2.00;;;5.70;99.90;;;;;;5081412;28;20039;-70
2022/03/05 09:28:56;;;;;;;6.85;3.63;;;5.60;99.90;;;;;;5084717;28;20020;-67
2022/03/05 09:31:22;;;;;;;0.00;0.00;;;5.60;99.90;;;;;;5084323;28;20337;-71
2022/03/05 09:33:48;;;;;;;3.53;1.35;;;5.60;99.90;;;;;;5084376;28;20034;-71
2022/03/05 09:36:14;;;;;;;0.43;0.43;;;5.50;99.90;;;;;;5083614;28;20060;-72
2022/03/05 09:38:40;;;;;;;0.40;0.40;;;5.50;99.90;;;;;;5101293;28;20302;-71
2022/03/05 09:41:07;;;;;;;2.67;2.50;;;5.50;99.90;;;;;;5084395;28;20024;-71
2022/03/05 09:43:34;;;;;;;0.00;0.00;;;5.50;99.90;;;;;;5100510;28;20016;-72
2022/03/05 09:46:01;;;;;;;0.20;0.20;;;5.60;99.90;;;;;;5065764;28;20020;-69
2022/03/05 09:48:28;;;;;;;0.20;0.20;;;5.60;99.90;;;;;;5101821;28;20081;-75
2022/03/05 09:50:55;;;;;;;3.22;1.48;;;5.70;99.90;;;;;;5102082;28;20048;-70
2022/03/05 09:53:28;;;;;;;0.00;0.00;;;5.80;99.90;;;;;;5102536;28;20020;-71
2022/03/05 09:55:53;;;;;;;0.00;0.00;;;5.90;99.90;;;;;;5081524;28;20016;-70
2022/03/05 09:58:19;;;;;;;0.00;0.00;;;6.00;99.90;;;;;;5083300;28;20070;-71
2022/03/05 10:00:45;;;;;;;0.00;0.00;;;6.10;99.90;;;;;;5083328;28;20024;-70
2022/03/05 10:03:41;;;;;;;0.52;0.47;;;6.20;99.90;;;;;;5102591;28;20040;-70
2022/03/05 10:06:24;;;;;;;0.00;0.00;;;6.10;99.90;;;;;;5093762;28;20086;-72
2022/03/05 10:08:51;;;;;;;0.00;0.00;;;6.00;99.40;;;;;;5081770;28;20100;-71
2022/03/05 10:11:18;;;;;;;0.85;0.60;;;6.00;99.90;;;;;;5072730;28;20056;-74
2022/03/05 10:13:43;;;;;;;0.00;0.00;;;6.00;99.90;;;;;;5076994;28;20016;-70
2022/03/05 10:16:31;;;;;;;0.00;0.00;;;6.10;99.90;;;;;;5091840;28;20363;-72
2022/03/05 10:18:58;;;;;;;0.00;0.00;;;6.20;99.90;;;;;;5090662;28;20016;-70
2022/03/05 10:21:29;;;;;;;0.00;0.00;;;6.30;99.90;;;;;;5077763;28;20098;-70
2022/03/05 10:24:04;;;;;;;0.00;0.00;;;6.40;99.90;;;;;;5089647;28;20306;-70
2022/03/05 10:26:52;;;;;;;0.00;0.00;;;6.50;99.90;;;;;;5080900;28;20521;-75
2022/03/05 10:29:20;;;;;;;0.00;0.00;;;6.50;99.90;;;;;;5080920;28;20253;-71
2022/03/05 10:32:06;;;;;;;0.00;0.00;;;6.50;99.90;;;;;;5082388;28;20044;-70
2022/03/05 10:34:41;;;;;;;0.50;0.50;;;6.50;99.90;;;;;;5100852;28;20036;-72
2022/03/05 10:37:07;;;;;;;0.00;0.00;;;6.60;99.90;;;;;;5083914;28;20295;-71
2022/03/05 10:39:33;;;;;;;0.38;0.38;;;6.70;99.90;;;;;;5100672;28;20042;-71
2022/03/05 10:41:59;;;;;;;0.43;0.43;;;6.70;98.90;;;;;;5083317;28;20016;-71
2022/03/05 10:44:25;;;;;;;0.10;0.10;;;6.80;99.50;;;;;;5083278;28;20020;-70
2022/03/05 10:47:01;;;;;;;0.00;0.00;;;6.90;99.90;;;;;;5101213;28;20031;-71
2022/03/05 10:49:37;;;;;;;0.00;0.00;;;6.80;99.90;;;;;;5100725;28;20044;-72
2022/03/05 10:52:06;;;;;;;3.63;0.30;;;6.90;99.70;;;;;;5084793;28;20111;-71
2022/03/05 10:54:40;;;;;;;0.00;0.00;;;6.80;98.70;;;;;;5100678;28;20067;-71
2022/03/05 10:57:16;;;;;;;0.22;0.22;;;6.80;99.60;;;;;;5084012;28;20023;-69
2022/03/05 10:59:49;;;;;;;0.00;0.00;;;6.70;99.90;;;;;;5100577;28;20037;-70
2022/03/05 11:02:17;;;;;;;0.35;0.35;;;6.60;98.70;;;;;;5083082;28;20012;-72
2022/03/05 11:04:43;;;;;;;0.00;0.00;;;6.60;97.60;;;;;;5082130;28;20020;-70
2022/03/05 11:07:10;;;;;;;1.55;0.65;;;6.60;99.50;;;;;;5085827;28;20028;-69
2022/03/05 11:09:38;;;;;;;0.73;0.73;;;6.50;99.90;;;;;;5090728;28;20027;-67
2022/03/05 11:12:07;;;;;;;0.00;0.00;;;6.50;99.10;;;;;;5105198;28;20024;-70
2022/03/05 11:14:33;;;;;;;0.00;0.00;;;6.50;99.90;;;;;;5101942;28;20061;-70
2022/03/05 11:17:00;;;;;;;0.63;0.63;;;6.50;99.20;;;;;;5101017;28;20064;-69
2022/03/05 11:19:26;;;;;;;0.70;0.20;;;6.40;99.90;;;;;;5104694;28;20254;-69
2022/03/05 11:21:52;;;;;;;0.00;0.00;;;6.40;98.80;;;;;;5086598;28;20016;-69
2022/03/05 11:24:20;;;;;;;0.00;0.00;;;6.40;98.80;;;;;;5086247;28;20020;-70
2022/03/05 11:26:52;;;;;;;0.17;0.17;;;6.30;99.70;;;;;;5104494;28;20298;-69
2022/03/05 11:29:25;;;;;;;0.10;0.10;;;6.30;99.30;;;;;;5086459;28;20036;-69
2022/03/05 11:31:51;;;;;;;0.00;0.00;;;6.30;99.20;;;;;;5080541;28;20032;-69
2022/03/05 11:34:19;;;;;;;0.00;0.00;;;6.30;99.90;;;;;;5086621;28;20103;-69
2022/03/05 11:36:47;;;;;;;0.10;0.10;;;6.30;99.30;;;;;;5085652;28;20054;-69
2022/03/05 11:39:18;;;;;;;0.00;0.00;;;6.20;97.90;;;;;;5086538;28;20030;-70
2022/03/05 11:41:47;;;;;;;0.00;0.00;;;6.30;99.00;;;;;;5084101;28;20073;-69
2022/03/05 11:44:15;;;;;;;0.00;0.00;;;6.20;99.80;;;;;;5104120;28;20242;-71
2022/03/05 11:46:41;;;;;;;0.00;0.00;;;6.20;99.90;;;;;;5082502;28;20016;-71
2022/03/05 11:49:11;;;;;;;0.52;0.52;;;6.20;99.30;;;;;;5104379;28;20020;-70
2022/03/05 11:51:52;;;;;;;0.00;0.00;;;6.30;99.90;;;;;;5103756;28;20357;-72
2022/03/05 11:54:19;;;;;;;1.00;1.00;;;6.20;99.40;;;;;;5085080;28;20027;-72
2022/03/05 11:57:10;;;;;;;0.00;0.00;;;6.30;99.70;;;;;;5102889;28;20230;-73
2022/03/05 11:59:50;;;;;;;0.00;0.00;;;6.30;99.70;;;;;;5083099;28;20019;-72
2022/03/05 12:02:37;;;;;;;0.00;0.00;;;6.30;99.90;;;;;;5103670;28;20051;-70
2022/03/05 12:05:03;;;;;;;0.00;0.00;;;6.30;99.80;;;;;;5086305;28;20070;-73
2022/03/05 12:07:36;;;;;;;0.15;0.15;;;6.30;99.90;;;;;;5102043;28;20012;-74
2022/03/05 12:10:11;;;;;;;0.00;0.00;;;6.40;98.20;;;;;;5085736;28;20036;-72
2022/03/05 12:12:55;;;;;;;0.10;0.10;;;6.40;98.00;;;;;;5084207;28;20023;-70
2022/03/05 12:15:32;;;;;;;0.03;0.03;;;6.30;98.40;;;;;;5096039;28;20267;-70
2022/03/05 12:18:02;;;;;;;0.00;0.00;;;6.30;97.80;;;;;;5103724;28;20024;-70
2022/03/05 12:20:34;;;;;;;0.00;0.00;;;6.40;98.60;;;;;;5086620;28;20036;-76
2022/03/05 12:23:03;;;;;;;0.00;0.00;;;6.40;98.60;;;;;;5087007;28;20027;-70
2022/03/05 12:25:32;;;;;;;0.00;0.00;;;6.40;96.80;;;;;;5083265;28;20315;-76
2022/03/05 12:28:00;;;;;;;0.00;0.00;;;6.40;96.70;;;;;;5088023;28;20026;-69
2022/03/05 12:30:31;;;;;;;0.30;0.30;;;6.50;97.90;;;;;;5108728;28;20103;-71
2022/03/05 12:33:11;;;;;;;2.15;2.05;;;6.60;96.90;;;;;;5087273;28;20027;-71
2022/03/05 12:35:38;;;;;;;0.00;0.00;;;6.60;97.70;;;;;;5082971;28;20023;-71
2022/03/05 12:38:06;;;;;;;0.00;0.00;;;6.60;97.20;;;;;;5098408;28;20048;-75
2022/03/05 12:40:32;;;;;;;0.00;0.00;;;6.60;97.40;;;;;;5093986;28;20091;-76
2022/03/05 12:43:00;;;;;;;2.30;0.47;;;6.60;97.60;;;;;;5073567;28;20031;-71
2022/03/05 12:45:33;;;;;;;0.00;0.00;;;6.70;96.50;;;;;;5086658;28;20306;-69
2022/03/05 12:48:07;;;;;;;0.00;0.00;;;6.70;96.10;;;;;;5105217;28;20032;-70
2022/03/05 12:50:36;;;;;;;2.17;0.25;;;6.80;96.00;;;;;;5101527;28;20038;-78
2022/03/05 12:53:13;;;;;;;0.00;0.00;;;6.80;95.60;;;;;;5086328;28;20052;-70
2022/03/05 12:55:44;;;;;;;0.00;0.00;;;6.80;94.80;;;;;;5085484;28;20027;-69
2022/03/05 12:58:16;;;;;;;0.00;0.00;;;6.80;96.00;;;;;;5104510;28;20079;-69